.
WxDataArchive / Data Records for 2012-10-11
2012-10-10 October 2012 2012-10-12

Data Records for Thursday, 11 October 2012

Time	Temp	Chill	HIndex	Humid	Dewpt	 Wind 	HiWind	WindDir	Rain 	Barom 
-----	----	-----	------	-----	-----	------	------	-------	-----	----- 
00:00	35.3	35.3	35.3	78	29.1	0	0	---	0.00	30.210 
00:05	35.3	35.3	35.3	78	29.1	0	0	---	0.00	30.210 
00:10	35.3	35.3	35.3	77	28.8	0	0	---	0.00	30.210 
00:15	35.3	35.3	35.3	77	28.8	0	0	---	0.00	30.208 
00:20	35.2	35.2	35.2	77	28.7	0	0	---	0.00	30.208 
00:25	35.0	35.0	35.0	77	28.5	0	0	---	0.00	30.208 
00:30	34.9	34.9	34.9	77	28.4	0	0	---	0.00	30.206 
00:35	34.7	34.7	34.7	77	28.2	0	0	---	0.00	30.206 
00:40	34.7	34.7	34.7	77	28.2	0	0	---	0.00	30.206 
00:45	34.6	34.6	34.6	78	28.5	0	0	---	0.00	30.208 
00:50	34.4	34.4	34.4	78	28.3	0	0	---	0.00	30.208 
00:55	34.3	34.3	34.3	79	28.5	0	0	---	0.00	30.208 
01:00	34.3	34.3	34.3	79	28.5	0	0	---	0.00	30.211 
01:05	34.1	34.1	34.1	79	28.3	0	0	---	0.00	30.211 
01:10	34.1	34.1	34.1	79	28.3	0	0	---	0.00	30.211 
01:15	34.0	34.0	34.0	80	28.5	0	0	---	0.00	30.211 
01:20	33.8	33.8	33.8	80	28.3	0	0	---	0.00	30.211 
01:25	33.5	33.5	33.5	80	28.0	0	0	---	0.00	30.211 
01:30	33.4	33.4	33.4	80	27.9	0	0	---	0.00	30.209 
01:35	33.4	33.4	33.4	81	28.2	0	0	---	0.00	30.209 
01:40	33.2	33.2	33.2	81	28.0	0	0	---	0.00	30.209 
01:45	33.1	33.1	33.1	81	27.9	0	0	---	0.00	30.204 
01:50	33.1	33.1	33.1	81	27.9	0	0	---	0.00	30.204 
01:55	32.9	32.9	32.9	81	27.7	0	0	---	0.00	30.204 
02:00	32.9	32.9	32.9	82	28.0	0	0	---	0.00	30.206 
02:05	32.8	32.8	32.8	82	27.9	0	0	---	0.00	30.206 
02:10	32.8	32.8	32.8	82	27.9	0	0	---	0.00	30.206 
02:15	32.8	32.8	32.8	83	28.2	0	0	---	0.00	30.211 
02:20	33.1	33.1	33.1	83	28.5	0	0	---	0.00	30.211 
02:25	33.4	33.4	33.4	84	29.1	0	0	---	0.00	30.211 
02:30	33.7	33.7	33.7	83	29.1	0	0	---	0.00	30.212 
02:35	34.1	34.1	34.1	83	29.5	0	0	---	0.00	30.212 
02:40	34.4	34.4	34.4	82	29.5	0	1	270	0.00	30.212 
02:45	34.7	34.7	34.7	81	29.5	0	0	---	0.00	30.216 
02:50	35.0	35.0	35.0	81	29.8	0	0	---	0.00	30.216 
02:55	35.0	35.0	35.0	80	29.5	0	0	---	0.00	30.216 
03:00	35.0	35.0	35.0	80	29.5	0	0	---	0.00	30.220 
03:05	35.2	35.2	35.2	79	29.4	0	0	---	0.00	30.220 
03:10	35.0	35.0	35.0	79	29.2	0	0	---	0.00	30.220 
03:15	35.0	35.0	35.0	79	29.2	0	0	---	0.00	30.215 
03:20	35.0	35.0	35.0	79	29.2	0	0	---	0.00	30.215 
03:25	35.0	35.0	35.0	79	29.2	0	0	---	0.00	30.215 
03:30	34.9	34.9	34.9	79	29.1	0	0	---	0.00	30.216 
03:35	34.9	34.9	34.9	79	29.1	0	0	---	0.00	30.216 
03:40	34.9	34.9	34.9	79	29.1	0	0	---	0.00	30.216 
03:45	34.9	34.9	34.9	79	29.1	0	0	---	0.00	30.213 
03:50	34.7	34.7	34.7	79	28.9	0	0	---	0.00	30.213 
03:55	34.6	34.6	34.6	79	28.8	0	0	---	0.00	30.213 
04:00	34.4	34.4	34.4	80	28.9	0	0	---	0.00	30.211 
04:05	34.3	34.3	34.3	80	28.8	0	0	---	0.00	30.211 
04:10	34.1	34.1	34.1	81	28.9	0	0	---	0.00	30.211 
04:15	34.0	34.0	34.0	81	28.8	0	0	---	0.00	30.208 
04:20	34.0	34.0	34.0	81	28.8	0	0	---	0.00	30.208 
04:25	34.0	34.0	34.0	81	28.8	0	1	270	0.00	30.208 
04:30	34.1	34.1	34.1	81	28.9	0	0	---	0.00	30.211 
04:35	34.3	34.3	34.3	81	29.1	0	1	270	0.00	30.211 
04:40	34.4	34.4	34.4	81	29.2	0	0	---	0.00	30.211 
04:45	34.7	34.7	34.7	81	29.5	0	0	---	0.00	30.214 
04:50	34.9	34.9	34.9	81	29.7	0	0	---	0.00	30.214 
04:55	34.9	34.9	34.9	80	29.4	0	0	---	0.00	30.214 
05:00	34.9	34.9	34.9	80	29.4	0	0	---	0.00	30.218 
05:05	34.9	34.9	34.9	80	29.4	0	0	---	0.00	30.218 
05:10	34.6	34.6	34.6	80	29.1	0	0	---	0.00	30.218 
05:15	34.4	34.4	34.4	80	28.9	0	0	---	0.00	30.219 
05:20	34.3	34.3	34.3	80	28.8	0	0	---	0.00	30.219 
05:25	34.1	34.1	34.1	81	28.9	0	0	---	0.00	30.219 
05:30	34.0	34.0	34.0	81	28.8	0	0	---	0.00	30.218 
05:35	33.8	33.8	33.8	81	28.6	0	0	---	0.00	30.218 
05:40	33.7	33.7	33.7	81	28.5	0	0	---	0.00	30.218 
05:45	33.4	33.4	33.4	81	28.2	0	1	270	0.00	30.223 
05:50	33.5	33.5	33.5	82	28.6	0	2	270	0.00	30.223 
05:55	33.7	33.7	33.7	82	28.8	0	1	270	0.00	30.223 
06:00	33.8	33.8	33.8	82	28.9	0	0	---	0.00	30.223 
06:05	33.8	33.8	33.8	82	28.9	0	0	---	0.00	30.223 
06:10	33.8	33.8	33.8	82	28.9	0	1	270	0.00	30.223 
06:15	33.8	33.8	33.8	82	28.9	0	0	---	0.00	30.227 
06:20	33.7	33.7	33.7	82	28.8	0	0	---	0.00	30.227 
06:25	33.7	33.7	33.7	82	28.8	0	0	---	0.00	30.227 
06:30	33.7	33.7	33.7	82	28.8	0	0	---	0.00	30.228 
06:35	33.7	33.7	33.7	82	28.8	0	1	270	0.00	30.228 
06:40	33.7	33.7	33.7	82	28.8	0	0	---	0.00	30.228 
06:45	33.8	33.8	33.8	82	28.9	0	1	270	0.00	30.230 
06:50	33.8	33.8	33.8	82	28.9	0	1	270	0.00	30.230 
06:55	34.0	34.0	34.0	82	29.1	0	0	---	0.00	30.230 
07:00	34.0	34.0	34.0	81	28.8	0	1	270	0.00	30.230 
07:05	34.0	34.0	34.0	81	28.8	0	0	---	0.00	30.230 
07:10	34.0	34.0	34.0	81	28.8	0	0	---	0.00	30.230 
07:15	33.8	33.8	33.8	81	28.6	0	0	---	0.00	30.232 
07:20	33.7	33.7	33.7	81	28.5	0	0	---	0.00	30.232 
07:25	33.7	33.7	33.7	81	28.5	0	1	270	0.00	30.232 
07:30	33.5	33.5	33.5	81	28.3	0	1	270	0.00	30.231 
07:35	33.7	33.7	33.7	82	28.8	0	1	270	0.00	30.231 
07:40	33.8	33.8	33.8	82	28.9	0	1	270	0.00	30.231 
07:45	34.0	34.0	34.0	81	28.8	0	1	270	0.00	30.232 
07:50	34.1	34.1	34.1	81	28.9	0	1	270	0.00	30.232 
07:55	34.1	34.1	34.1	81	28.9	0	1	270	0.00	30.232 
08:00	34.1	34.1	34.1	81	28.9	0	1	270	0.00	30.232 
08:05	34.3	34.3	34.3	81	29.1	0	0	---	0.00	30.232 
08:10	34.4	34.4	34.4	81	29.2	0	1	270	0.00	30.232 
08:15	34.6	34.6	34.6	81	29.4	0	0	---	0.00	30.241 
08:20	34.9	34.9	34.9	81	29.7	0	1	270	0.00	30.241 
08:25	35.2	35.2	35.2	81	30.0	0	1	270	0.00	30.241 
08:30	35.5	35.5	35.5	80	30.0	0	1	270	0.00	30.249 
08:35	35.9	35.9	35.9	79	30.0	0	2	270	0.00	30.249 
08:40	36.3	36.3	36.3	79	30.4	0	2	270	0.00	30.249 
08:45	36.8	36.8	36.8	77	30.3	0	2	270	0.00	30.251 
08:50	37.0	37.0	37.0	77	30.5	0	2	270	0.00	30.251 
08:55	37.5	37.5	37.5	76	30.6	0	3	248	0.00	30.251 
09:00	37.9	37.9	37.9	74	30.4	0	1	248	0.00	30.248 
09:05	38.3	38.3	38.3	74	30.8	0	3	248	0.00	30.248 
09:10	38.8	38.8	38.8	73	30.9	0	3	248	0.00	30.248 
09:15	39.1	39.1	39.1	72	30.8	0	5	248	0.00	30.250 
09:20	39.6	39.6	39.6	71	31.0	0	2	248	0.00	30.250 
09:25	40.1	40.1	40.1	70	31.1	0	2	248	0.00	30.250 
09:30	40.6	40.6	40.6	68	30.9	0	2	248	0.00	30.244 
09:35	41.1	41.1	41.1	67	31.0	0	3	248	0.00	30.244 
09:40	41.6	41.6	41.6	65	30.7	1	5	248	0.00	30.244 
09:45	42.2	42.2	42.2	65	31.3	0	3	248	0.00	30.244 
09:50	42.8	42.8	42.8	64	31.5	0	1	248	0.00	30.244 
09:55	43.2	43.2	43.2	63	31.5	0	3	248	0.00	30.244 
10:00	43.9	43.9	43.9	62	31.7	1	3	248	0.00	30.235 
10:05	44.6	44.6	44.6	61	32.0	1	3	248	0.00	30.235 
10:10	45.2	45.2	45.2	58	31.3	1	3	248	0.00	30.235 
10:15	46.0	46.0	46.0	58	32.1	1	4	248	0.00	30.229 
10:20	46.5	46.5	46.5	57	32.1	0	2	248	0.00	30.229 
10:25	47.3	47.3	47.3	54	31.5	2	5	248	0.00	30.229 
10:30	47.7	47.7	47.7	53	31.4	2	5	248	0.00	30.226 
10:35	48.2	48.2	48.2	52	31.4	1	4	248	0.00	30.226 
10:40	48.8	48.8	48.8	53	32.4	1	4	270	0.00	30.226 
10:45	49.1	49.1	49.1	51	31.8	2	4	248	0.00	30.221 
10:50	49.5	49.5	49.5	51	32.1	2	6	270	0.00	30.221 
10:55	49.9	49.9	49.9	51	32.5	1	6	225	0.00	30.221 
11:00	50.4	50.4	50.4	49	32.0	2	5	270	0.00	30.223 
11:05	50.7	50.7	50.7	48	31.7	2	5	225	0.00	30.223 
11:10	51.0	51.0	51.0	48	32.0	2	7	270	0.00	30.223 
11:15	51.4	51.4	51.4	48	32.4	1	5	248	0.00	30.216 
11:20	52.0	52.0	52.0	48	32.9	1	4	270	0.00	30.216 
11:25	52.2	52.2	52.2	46	32.1	2	5	270	0.00	30.216 
11:30	52.3	52.3	52.3	46	32.1	2	4	248	0.00	30.219 
11:35	52.6	52.6	52.6	46	32.4	2	6	270	0.00	30.219 
11:40	52.8	52.8	52.8	46	32.6	2	6	270	0.00	30.219 
11:45	53.2	53.2	53.2	46	33.0	1	4	248	0.00	30.217 
11:50	53.6	53.6	53.6	43	31.7	2	6	248	0.00	30.217 
11:55	53.8	53.8	53.8	42	31.3	3	6	248	0.00	30.217 
12:00	54.1	54.1	54.1	43	32.1	1	4	270	0.00	30.211 
12:05	54.4	54.4	54.4	41	31.2	3	7	270	0.00	30.211 
12:10	54.4	54.4	54.4	41	31.2	2	5	225	0.00	30.211 
12:15	54.7	54.7	54.7	41	31.5	2	5	248	0.00	30.204 
12:20	54.8	54.8	54.8	41	31.6	2	9	270	0.00	30.204 
12:25	55.3	55.3	55.3	42	32.6	2	5	270	0.00	30.204 
12:30	55.9	55.9	55.9	39	31.3	2	5	248	0.00	30.191 
12:35	56.0	56.0	56.0	39	31.4	2	6	248	0.00	30.191 
12:40	56.0	56.0	56.0	38	30.8	2	6	248	0.00	30.191 
12:45	56.0	56.0	56.0	38	30.8	2	10	270	0.00	30.190 
12:50	56.3	56.3	56.3	39	31.7	2	6	270	0.00	30.190 
12:55	56.6	56.6	56.6	38	31.3	2	5	248	0.00	30.190 
13:00	56.9	56.9	56.9	38	31.6	2	6	270	0.00	30.182 
13:05	57.0	57.0	57.0	38	31.6	2	5	270	0.00	30.182 
13:10	57.3	57.3	57.3	36	30.6	2	7	248	0.00	30.182 
13:15	57.5	57.5	57.5	35	30.1	2	4	248	0.00	30.175 
13:20	57.2	57.2	57.2	36	30.5	3	7	248	0.00	30.175 
13:25	57.3	57.3	57.3	36	30.6	2	6	292	0.00	30.175 
13:30	57.3	57.3	57.3	36	30.6	3	10	248	0.00	30.171 
13:35	57.8	57.8	57.8	36	31.0	2	4	248	0.00	30.171 
13:40	58.0	58.0	58.0	36	31.2	2	5	248	0.00	30.171 
13:45	58.3	58.3	58.3	38	32.8	1	4	248	0.00	30.165 
13:50	58.6	58.6	58.6	36	31.7	2	6	248	0.00	30.165 
13:55	58.7	58.7	58.7	34	30.4	2	5	248	0.00	30.165 
14:00	58.7	58.7	58.7	35	31.1	2	6	248	0.00	30.144 
14:05	58.9	58.9	58.9	35	31.3	2	9	270	0.00	30.144 
14:10	59.2	59.2	59.2	35	31.6	2	5	248	0.00	30.144 
14:15	59.3	59.3	59.3	33	30.2	2	6	248	0.00	30.124 
14:20	59.5	59.5	59.5	33	30.4	2	4	248	0.00	30.124 
14:25	59.3	59.3	59.3	34	30.9	2	6	248	0.00	30.124 
14:30	59.3	59.3	59.3	34	30.9	2	5	270	0.00	30.128 
14:35	59.3	59.3	59.3	33	30.2	2	5	270	0.00	30.128 
14:40	59.3	59.3	59.3	34	30.9	2	7	248	0.00	30.128 
14:45	59.5	59.5	59.5	35	31.8	1	4	248	0.00	30.135 
14:50	59.6	59.6	59.6	33	30.5	2	6	270	0.00	30.135 
14:55	59.8	59.8	59.8	32	29.9	2	6	248	0.00	30.135 
15:00	59.8	59.8	59.8	30	28.3	2	5	248	0.00	30.130 
15:05	59.5	59.5	59.5	31	28.8	3	6	248	0.00	30.130 
15:10	59.5	59.5	59.5	32	29.6	2	7	248	0.00	30.130 
15:15	59.6	59.6	59.6	33	30.5	1	4	248	0.00	30.129 
15:20	59.9	59.9	59.9	31	29.2	2	7	248	0.00	30.129 
15:25	60.1	60.1	60.1	31	29.4	2	7	270	0.00	30.129 
15:30	60.1	60.1	60.1	31	29.4	2	6	270	0.00	30.123 
15:35	60.1	60.1	60.1	30	28.6	2	6	248	0.00	30.123 
15:40	60.2	60.2	60.2	31	29.5	1	5	225	0.00	30.123 
15:45	60.2	60.2	60.2	30	28.7	3	8	248	0.00	30.118 
15:50	60.4	60.4	60.4	30	28.8	2	5	248	0.00	30.118 
15:55	60.5	60.5	60.5	30	28.9	3	11	248	0.00	30.118 
16:00	60.9	60.9	60.9	30	29.3	2	5	248	0.00	30.115 
16:05	60.9	60.9	60.9	31	30.1	1	3	225	0.00	30.115 
16:10	61.0	61.0	61.0	29	28.5	1	4	248	0.00	30.115 
16:15	60.9	60.9	60.9	29	28.4	2	4	248	0.00	30.108 
16:20	60.7	60.7	60.7	29	28.3	2	6	248	0.00	30.108 
16:25	60.5	60.5	60.5	31	29.7	1	4	248	0.00	30.108 
16:30	60.5	60.5	60.5	30	28.9	1	6	270	0.00	30.104 
16:35	60.5	60.5	60.5	31	29.7	2	6	270	0.00	30.104 
16:40	60.5	60.5	60.5	30	28.9	2	5	248	0.00	30.104 
16:45	60.4	60.4	60.4	30	28.8	2	6	248	0.00	30.106 
16:50	60.2	60.2	60.2	30	28.7	1	5	248	0.00	30.106 
16:55	60.2	60.2	60.2	31	29.5	1	4	248	0.00	30.106 
17:00	60.2	60.2	60.2	31	29.5	1	4	112	0.00	30.105 
17:05	60.1	60.1	60.1	30	28.6	3	6	248	0.00	30.105 
17:10	59.9	59.9	59.9	32	30.0	1	5	248	0.00	30.105 
17:15	59.9	59.9	59.9	31	29.2	2	6	248	0.00	30.111 
17:20	59.9	59.9	59.9	31	29.2	1	4	248	0.00	30.111 
17:25	59.9	59.9	59.9	32	30.0	1	5	270	0.00	30.111 
17:30	59.9	59.9	59.9	31	29.2	0	2	270	0.00	30.103 
17:35	60.1	60.1	60.1	32	30.1	1	3	270	0.00	30.103 
17:40	59.9	59.9	59.9	31	29.2	2	6	270	0.00	30.103 
17:45	59.6	59.6	59.6	31	28.9	2	5	248	0.00	30.106 
17:50	59.5	59.5	59.5	31	28.8	2	4	248	0.00	30.106 
17:55	59.3	59.3	59.3	32	29.4	1	4	248	0.00	30.106 
18:00	59.3	59.3	59.3	33	30.2	1	3	248	0.00	30.109 
18:05	59.2	59.2	59.2	33	30.1	0	2	248	0.00	30.109 
18:10	59.0	59.0	59.0	33	29.9	0	2	248	0.00	30.109 
18:15	58.9	58.9	58.9	33	29.9	1	4	270	0.00	30.108 
18:20	58.6	58.6	58.6	33	29.6	1	5	270	0.00	30.108 
18:25	58.3	58.3	58.3	34	30.1	0	2	248	0.00	30.108 
18:30	57.8	57.8	57.8	35	30.3	0	3	248	0.00	30.105 
18:35	57.5	57.5	57.5	35	30.1	1	3	248	0.00	30.105 
18:40	57.3	57.3	57.3	36	30.6	0	3	270	0.00	30.105 
18:45	57.2	57.2	57.2	35	29.8	0	2	270	0.00	30.112 
18:50	57.0	57.0	57.0	36	30.3	0	2	270	0.00	30.112 
18:55	57.0	57.0	57.0	36	30.3	0	2	248	0.00	30.112 
19:00	56.9	56.9	56.9	37	30.9	0	1	248	0.00	30.113 
19:05	56.6	56.6	56.6	38	31.3	0	1	248	0.00	30.113 
19:10	56.5	56.5	56.5	38	31.2	0	1	248	0.00	30.113 
19:15	56.3	56.3	56.3	38	31.0	0	1	248	0.00	30.114 
19:20	56.2	56.2	56.2	39	31.6	0	1	248	0.00	30.114 
19:25	55.9	55.9	55.9	39	31.3	0	1	248	0.00	30.114 
19:30	55.7	55.7	55.7	40	31.8	0	1	248	0.00	30.119 
19:35	55.6	55.6	55.6	40	31.7	0	2	248	0.00	30.119 
19:40	55.3	55.3	55.3	41	32.0	0	1	248	0.00	30.119 
19:45	55.1	55.1	55.1	41	31.8	0	1	248	0.00	30.126 
19:50	55.1	55.1	55.1	42	32.4	0	1	248	0.00	30.126 
19:55	55.0	55.0	55.0	42	32.3	0	1	248	0.00	30.126 
20:00	54.8	54.8	54.8	43	32.7	0	1	248	0.00	30.129 
20:05	54.8	54.8	54.8	43	32.7	0	1	248	0.00	30.129 
20:10	54.8	54.8	54.8	43	32.7	0	1	248	0.00	30.129 
20:15	54.7	54.7	54.7	43	32.6	0	1	248	0.00	30.130 
20:20	54.7	54.7	54.7	44	33.2	0	1	248	0.00	30.130 
20:25	54.7	54.7	54.7	43	32.6	0	2	248	0.00	30.130 
20:30	54.7	54.7	54.7	43	32.6	0	2	248	0.00	30.133 
20:35	54.7	54.7	54.7	44	33.2	0	1	248	0.00	30.133 
20:40	54.7	54.7	54.7	44	33.2	0	1	248	0.00	30.133 
20:45	54.5	54.5	54.5	44	33.0	0	2	248	0.00	30.139 
20:50	54.5	54.5	54.5	44	33.0	0	1	248	0.00	30.139 
20:55	54.5	54.5	54.5	44	33.0	0	2	248	0.00	30.139 
21:00	54.5	54.5	54.5	45	33.6	0	1	248	0.00	30.128 
21:05	54.5	54.5	54.5	45	33.6	0	2	248	0.00	30.128 
21:10	54.5	54.5	54.5	45	33.6	0	1	248	0.00	30.128 
21:15	54.4	54.4	54.4	46	34.1	0	1	248	0.00	30.128 
21:20	54.4	54.4	54.4	45	33.5	0	2	248	0.00	30.128 
21:25	54.4	54.4	54.4	46	34.1	0	1	248	0.00	30.128 
21:30	54.2	54.2	54.2	46	33.9	0	2	248	0.00	30.135 
21:35	54.2	54.2	54.2	46	33.9	0	1	248	0.00	30.135 
21:40	54.2	54.2	54.2	46	33.9	0	2	248	0.00	30.135 
21:45	54.2	54.2	54.2	46	33.9	0	2	248	0.00	30.134 
21:50	54.2	54.2	54.2	46	33.9	0	2	248	0.00	30.134 
21:55	54.1	54.1	54.1	46	33.8	0	1	248	0.00	30.134 
22:00	54.1	54.1	54.1	46	33.8	0	2	248	0.00	30.133 
22:05	53.9	53.9	53.9	47	34.1	0	1	248	0.00	30.133 
22:10	53.9	53.9	53.9	47	34.1	0	1	248	0.00	30.133 
22:15	53.8	53.8	53.8	48	34.6	0	1	248	0.00	30.130 
22:20	53.6	53.6	53.6	48	34.4	0	1	248	0.00	30.130 
22:25	53.5	53.5	53.5	48	34.3	0	1	248	0.00	30.130 
22:30	53.3	53.3	53.3	49	34.6	0	2	248	0.00	30.134 
22:35	53.3	53.3	53.3	49	34.6	0	2	248	0.00	30.134 
22:40	53.3	53.3	53.3	49	34.6	0	2	292	0.00	30.134 
22:45	53.3	53.3	53.3	49	34.6	0	1	292	0.00	30.138 
22:50	53.2	53.2	53.2	50	35.0	0	2	292	0.00	30.138 
22:55	53.2	53.2	53.2	49	34.5	0	4	292	0.00	30.138 
23:00	53.2	53.2	53.2	50	35.0	0	2	248	0.00	30.137 
23:05	53.2	53.2	53.2	50	35.0	0	1	248	0.00	30.137 
23:10	53.2	53.2	53.2	49	34.5	0	2	248	0.00	30.137 
23:15	53.2	53.2	53.2	50	35.0	0	1	248	0.00	30.133 
23:20	53.2	53.2	53.2	50	35.0	0	2	248	0.00	30.133 
23:25	53.3	53.3	53.3	50	35.1	0	2	225	0.00	30.133 
23:30	53.2	53.2	53.2	50	35.0	0	2	225	0.00	30.133 
23:35	53.2	53.2	53.2	50	35.0	0	3	248	0.00	30.133 
23:40	53.2	53.2	53.2	50	35.0	0	2	248	0.00	30.133 
23:45	53.2	53.2	53.2	50	35.0	0	2	248	0.00	30.140 
23:50	53.2	53.2	53.2	50	35.0	0	1	248	0.00	30.140 
23:55	53.2	53.2	53.2	50	35.0	0	1	248	0.00	30.140 

CoCoRaHS
IN-AL-39
A2 Web Hosting
Creative Commons License
GoDaddy
search engine by freefind advanced

loaded 2018-11-20 08:18:29 • last modified 2010-11-18 10:43:29
Privacy PolicyDisclaimer
• wx.awcolley.com is powered by PmWiki v.2002016 •
• all content (unless otherwise noted) © 2018 A W Colley